sensor_id;sensor_type;location;lat;lon;timestamp;P1;durP1;ratioP1;P2;durP2;ratioP2
49548;SDS011;35450;44.518;7.466;2023-02-28T00:01:06;4.85;;;3.40;;
49548;SDS011;35450;44.518;7.466;2023-02-28T00:04:11;8.25;;;3.30;;
49548;SDS011;35450;44.518;7.466;2023-02-28T00:07:15;3.85;;;2.90;;
49548;SDS011;35450;44.518;7.466;2023-02-28T00:10:22;4.57;;;3.53;;
49548;SDS011;35450;44.518;7.466;2023-02-28T00:13:30;3.75;;;3.05;;
49548;SDS011;35450;44.518;7.466;2023-02-28T00:16:34;4.10;;;2.88;;
49548;SDS011;35450;44.518;7.466;2023-02-28T00:19:38;8.35;;;4.68;;
49548;SDS011;35450;44.518;7.466;2023-02-28T00:22:43;4.07;;;3.28;;
49548;SDS011;35450;44.518;7.466;2023-02-28T00:25:50;4.22;;;2.80;;
49548;SDS011;35450;44.518;7.466;2023-02-28T00:28:54;3.08;;;2.55;;
49548;SDS011;35450;44.518;7.466;2023-02-28T00:31:59;4.68;;;3.42;;
49548;SDS011;35450;44.518;7.466;2023-02-28T00:35:03;4.53;;;2.92;;
49548;SDS011;35450;44.518;7.466;2023-02-28T00:38:09;4.25;;;3.30;;
49548;SDS011;35450;44.518;7.466;2023-02-28T00:41:12;5.70;;;3.40;;
49548;SDS011;35450;44.518;7.466;2023-02-28T00:44:17;3.90;;;3.05;;
49548;SDS011;35450;44.518;7.466;2023-02-28T00:47:25;7.60;;;4.13;;
49548;SDS011;35450;44.518;7.466;2023-02-28T00:50:29;4.25;;;3.45;;
49548;SDS011;35450;44.518;7.466;2023-02-28T00:53:34;4.25;;;3.10;;
49548;SDS011;35450;44.518;7.466;2023-02-28T00:56:38;3.67;;;3.28;;
49548;SDS011;35450;44.518;7.466;2023-02-28T00:59:42;4.30;;;3.05;;
49548;SDS011;35450;44.518;7.466;2023-02-28T01:02:46;3.55;;;2.75;;
49548;SDS011;35450;44.518;7.466;2023-02-28T01:05:52;4.47;;;3.40;;
49548;SDS011;35450;44.518;7.466;2023-02-28T01:08:58;4.95;;;3.72;;
49548;SDS011;35450;44.518;7.466;2023-02-28T01:12:03;6.68;;;3.45;;
49548;SDS011;35450;44.518;7.466;2023-02-28T01:15:09;6.97;;;4.35;;
49548;SDS011;35450;44.518;7.466;2023-02-28T01:18:14;7.10;;;3.67;;
49548;SDS011;35450;44.518;7.466;2023-02-28T01:21:20;8.20;;;4.28;;
49548;SDS011;35450;44.518;7.466;2023-02-28T01:24:25;7.85;;;3.95;;
49548;SDS011;35450;44.518;7.466;2023-02-28T01:27:29;4.50;;;3.78;;
49548;SDS011;35450;44.518;7.466;2023-02-28T01:30:33;5.80;;;3.92;;
49548;SDS011;35450;44.518;7.466;2023-02-28T01:33:37;7.10;;;3.47;;
49548;SDS011;35450;44.518;7.466;2023-02-28T01:36:42;6.82;;;3.80;;
49548;SDS011;35450;44.518;7.466;2023-02-28T01:39:47;5.53;;;3.90;;
49548;SDS011;35450;44.518;7.466;2023-02-28T01:42:51;5.35;;;3.80;;
49548;SDS011;35450;44.518;7.466;2023-02-28T01:45:57;7.57;;;4.68;;
49548;SDS011;35450;44.518;7.466;2023-02-28T01:49:09;4.90;;;3.92;;
49548;SDS011;35450;44.518;7.466;2023-02-28T01:52:18;6.75;;;4.60;;
49548;SDS011;35450;44.518;7.466;2023-02-28T01:55:23;4.72;;;3.63;;
49548;SDS011;35450;44.518;7.466;2023-02-28T01:58:34;5.35;;;3.80;;
49548;SDS011;35450;44.518;7.466;2023-02-28T02:01:40;4.28;;;3.42;;
49548;SDS011;35450;44.518;7.466;2023-02-28T02:04:55;5.55;;;4.05;;
49548;SDS011;35450;44.518;7.466;2023-02-28T02:08:10;5.90;;;3.65;;
49548;SDS011;35450;44.518;7.466;2023-02-28T02:11:17;4.65;;;3.40;;
49548;SDS011;35450;44.518;7.466;2023-02-28T02:18:23;4.40;;;3.53;;
49548;SDS011;35450;44.518;7.466;2023-02-28T02:41:24;4.90;;;3.60;;
49548;SDS011;35450;44.518;7.466;2023-02-28T02:44:35;5.18;;;3.90;;
49548;SDS011;35450;44.518;7.466;2023-02-28T02:47:58;6.35;;;4.53;;
49548;SDS011;35450;44.518;7.466;2023-02-28T02:51:06;5.35;;;4.03;;
49548;SDS011;35450;44.518;7.466;2023-02-28T02:54:19;6.30;;;4.63;;
49548;SDS011;35450;44.518;7.466;2023-02-28T02:57:29;4.90;;;3.90;;
49548;SDS011;35450;44.518;7.466;2023-02-28T03:00:47;5.70;;;4.30;;
49548;SDS011;35450;44.518;7.466;2023-02-28T03:03:57;5.47;;;4.20;;
49548;SDS011;35450;44.518;7.466;2023-02-28T03:07:03;7.15;;;4.75;;
49548;SDS011;35450;44.518;7.466;2023-02-28T03:10:27;6.63;;;4.78;;
49548;SDS011;35450;44.518;7.466;2023-02-28T03:17:10;9.27;;;5.43;;
49548;SDS011;35450;44.518;7.466;2023-02-28T03:23:50;9.80;;;5.55;;
49548;SDS011;35450;44.518;7.466;2023-02-28T03:33:59;9.90;;;5.00;;
49548;SDS011;35450;44.518;7.466;2023-02-28T03:37:19;8.77;;;5.03;;
49548;SDS011;35450;44.518;7.466;2023-02-28T03:40:26;7.50;;;4.80;;
49548;SDS011;35450;44.518;7.466;2023-02-28T03:43:34;8.18;;;5.70;;
49548;SDS011;35450;44.518;7.466;2023-02-28T03:46:46;6.70;;;4.95;;
49548;SDS011;35450;44.518;7.466;2023-02-28T03:50:25;11.80;;;5.72;;
49548;SDS011;35450;44.518;7.466;2023-02-28T03:53:39;10.15;;;5.40;;
49548;SDS011;35450;44.518;7.466;2023-02-28T03:56:53;14.25;;;5.82;;
49548;SDS011;35450;44.518;7.466;2023-02-28T04:00:07;8.40;;;5.15;;
49548;SDS011;35450;44.518;7.466;2023-02-28T04:03:16;11.40;;;5.70;;
49548;SDS011;35450;44.518;7.466;2023-02-28T04:06:21;9.05;;;5.72;;
49548;SDS011;35450;44.518;7.466;2023-02-28T04:09:27;9.20;;;5.90;;
49548;SDS011;35450;44.518;7.466;2023-02-28T04:12:31;9.30;;;5.53;;
49548;SDS011;35450;44.518;7.466;2023-02-28T04:15:35;9.40;;;6.00;;
49548;SDS011;35450;44.518;7.466;2023-02-28T04:18:40;7.15;;;4.93;;
49548;SDS011;35450;44.518;7.466;2023-02-28T04:21:47;7.15;;;5.70;;
49548;SDS011;35450;44.518;7.466;2023-02-28T04:24:55;8.75;;;5.63;;
49548;SDS011;35450;44.518;7.466;2023-02-28T04:27:59;8.07;;;5.85;;
49548;SDS011;35450;44.518;7.466;2023-02-28T04:31:04;12.10;;;6.13;;
49548;SDS011;35450;44.518;7.466;2023-02-28T04:34:08;10.25;;;5.60;;
49548;SDS011;35450;44.518;7.466;2023-02-28T04:37:12;7.32;;;5.38;;
49548;SDS011;35450;44.518;7.466;2023-02-28T04:40:16;8.38;;;5.68;;
49548;SDS011;35450;44.518;7.466;2023-02-28T04:43:20;7.50;;;5.07;;
49548;SDS011;35450;44.518;7.466;2023-02-28T04:46:24;7.57;;;5.20;;
49548;SDS011;35450;44.518;7.466;2023-02-28T04:49:28;9.15;;;5.53;;
49548;SDS011;35450;44.518;7.466;2023-02-28T04:52:32;9.35;;;4.72;;
49548;SDS011;35450;44.518;7.466;2023-02-28T04:55:36;7.10;;;5.38;;
49548;SDS011;35450;44.518;7.466;2023-02-28T04:58:43;8.45;;;5.25;;
49548;SDS011;35450;44.518;7.466;2023-02-28T05:01:48;9.27;;;5.63;;
49548;SDS011;35450;44.518;7.466;2023-02-28T05:04:52;8.20;;;6.03;;
49548;SDS011;35450;44.518;7.466;2023-02-28T05:07:56;10.52;;;6.40;;
49548;SDS011;35450;44.518;7.466;2023-02-28T05:11:01;9.63;;;6.38;;
49548;SDS011;35450;44.518;7.466;2023-02-28T05:14:08;8.90;;;5.70;;
49548;SDS011;35450;44.518;7.466;2023-02-28T05:17:14;5.88;;;4.50;;
49548;SDS011;35450;44.518;7.466;2023-02-28T05:20:18;7.20;;;4.53;;
49548;SDS011;35450;44.518;7.466;2023-02-28T05:23:24;9.10;;;5.68;;
49548;SDS011;35450;44.518;7.466;2023-02-28T05:26:28;6.35;;;5.35;;
49548;SDS011;35450;44.518;7.466;2023-02-28T05:29:32;10.30;;;6.07;;
49548;SDS011;35450;44.518;7.466;2023-02-28T05:32:37;8.38;;;5.90;;
49548;SDS011;35450;44.518;7.466;2023-02-28T05:35:45;9.05;;;6.78;;
49548;SDS011;35450;44.518;7.466;2023-02-28T05:38:50;11.70;;;7.45;;
49548;SDS011;35450;44.518;7.466;2023-02-28T05:41:54;9.75;;;7.53;;
49548;SDS011;35450;44.518;7.466;2023-02-28T05:44:58;12.73;;;8.90;;
49548;SDS011;35450;44.518;7.466;2023-02-28T05:48:02;13.80;;;8.82;;
49548;SDS011;35450;44.518;7.466;2023-02-28T05:51:07;18.58;;;11.07;;
49548;SDS011;35450;44.518;7.466;2023-02-28T05:54:12;16.67;;;10.18;;
49548;SDS011;35450;44.518;7.466;2023-02-28T05:57:16;16.60;;;10.05;;
49548;SDS011;35450;44.518;7.466;2023-02-28T06:00:20;15.45;;;10.20;;
49548;SDS011;35450;44.518;7.466;2023-02-28T06:03:24;13.70;;;9.73;;
49548;SDS011;35450;44.518;7.466;2023-02-28T06:06:28;14.38;;;9.60;;
49548;SDS011;35450;44.518;7.466;2023-02-28T06:09:33;12.57;;;9.13;;
49548;SDS011;35450;44.518;7.466;2023-02-28T06:12:37;14.23;;;10.10;;
49548;SDS011;35450;44.518;7.466;2023-02-28T06:15:41;41.72;;;23.50;;
49548;SDS011;35450;44.518;7.466;2023-02-28T06:18:45;17.13;;;11.45;;
49548;SDS011;35450;44.518;7.466;2023-02-28T06:21:49;17.30;;;11.23;;
49548;SDS011;35450;44.518;7.466;2023-02-28T06:24:55;16.63;;;10.82;;
49548;SDS011;35450;44.518;7.466;2023-02-28T06:28:00;13.82;;;9.02;;
49548;SDS011;35450;44.518;7.466;2023-02-28T06:31:08;14.60;;;10.27;;
49548;SDS011;35450;44.518;7.466;2023-02-28T06:34:13;13.48;;;10.18;;
49548;SDS011;35450;44.518;7.466;2023-02-28T06:37:17;15.50;;;10.70;;
49548;SDS011;35450;44.518;7.466;2023-02-28T06:40:22;14.50;;;10.80;;
49548;SDS011;35450;44.518;7.466;2023-02-28T06:43:27;15.20;;;11.75;;
49548;SDS011;35450;44.518;7.466;2023-02-28T06:46:35;15.85;;;11.68;;
49548;SDS011;35450;44.518;7.466;2023-02-28T06:49:40;19.08;;;12.50;;
49548;SDS011;35450;44.518;7.466;2023-02-28T06:52:44;19.95;;;11.93;;
49548;SDS011;35450;44.518;7.466;2023-02-28T06:55:49;18.58;;;13.25;;
49548;SDS011;35450;44.518;7.466;2023-02-28T06:58:52;16.30;;;12.18;;
49548;SDS011;35450;44.518;7.466;2023-02-28T07:01:56;17.95;;;11.90;;
49548;SDS011;35450;44.518;7.466;2023-02-28T07:05:00;17.88;;;11.57;;
49548;SDS011;35450;44.518;7.466;2023-02-28T07:08:05;17.75;;;12.07;;
49548;SDS011;35450;44.518;7.466;2023-02-28T07:11:09;16.30;;;12.48;;
49548;SDS011;35450;44.518;7.466;2023-02-28T07:14:13;19.17;;;13.00;;
49548;SDS011;35450;44.518;7.466;2023-02-28T07:17:17;20.30;;;13.02;;
49548;SDS011;35450;44.518;7.466;2023-02-28T07:20:22;20.42;;;14.07;;
49548;SDS011;35450;44.518;7.466;2023-02-28T07:23:26;17.83;;;12.52;;
49548;SDS011;35450;44.518;7.466;2023-02-28T07:26:30;13.50;;;10.55;;
49548;SDS011;35450;44.518;7.466;2023-02-28T07:29:37;17.33;;;10.60;;
49548;SDS011;35450;44.518;7.466;2023-02-28T07:32:41;13.73;;;10.15;;
49548;SDS011;35450;44.518;7.466;2023-02-28T07:35:45;17.63;;;13.20;;
49548;SDS011;35450;44.518;7.466;2023-02-28T07:38:49;17.08;;;12.20;;
49548;SDS011;35450;44.518;7.466;2023-02-28T07:41:53;20.50;;;14.07;;
49548;SDS011;35450;44.518;7.466;2023-02-28T07:45:02;21.83;;;14.43;;
49548;SDS011;35450;44.518;7.466;2023-02-28T07:48:06;17.75;;;11.50;;
49548;SDS011;35450;44.518;7.466;2023-02-28T07:51:13;26.75;;;12.57;;
49548;SDS011;35450;44.518;7.466;2023-02-28T07:54:18;18.58;;;13.23;;
49548;SDS011;35450;44.518;7.466;2023-02-28T07:57:22;19.75;;;12.00;;
49548;SDS011;35450;44.518;7.466;2023-02-28T08:00:26;19.17;;;12.13;;
49548;SDS011;35450;44.518;7.466;2023-02-28T08:03:30;17.17;;;9.40;;
49548;SDS011;35450;44.518;7.466;2023-02-28T08:06:34;13.25;;;8.68;;
49548;SDS011;35450;44.518;7.466;2023-02-28T08:09:39;12.38;;;8.80;;
49548;SDS011;35450;44.518;7.466;2023-02-28T08:12:44;21.95;;;8.50;;
49548;SDS011;35450;44.518;7.466;2023-02-28T08:15:48;14.65;;;9.88;;
49548;SDS011;35450;44.518;7.466;2023-02-28T08:18:52;13.13;;;9.07;;
49548;SDS011;35450;44.518;7.466;2023-02-28T08:21:57;14.45;;;8.90;;
49548;SDS011;35450;44.518;7.466;2023-02-28T08:25:01;13.25;;;9.38;;
49548;SDS011;35450;44.518;7.466;2023-02-28T08:28:05;13.63;;;9.05;;
49548;SDS011;35450;44.518;7.466;2023-02-28T08:31:10;12.30;;;8.35;;
49548;SDS011;35450;44.518;7.466;2023-02-28T08:34:18;12.85;;;8.40;;
49548;SDS011;35450;44.518;7.466;2023-02-28T08:37:22;9.40;;;7.40;;
49548;SDS011;35450;44.518;7.466;2023-02-28T08:40:26;13.07;;;8.88;;
49548;SDS011;35450;44.518;7.466;2023-02-28T08:43:29;12.45;;;7.82;;
49548;SDS011;35450;44.518;7.466;2023-02-28T08:46:34;11.55;;;7.80;;
49548;SDS011;35450;44.518;7.466;2023-02-28T08:49:38;10.90;;;8.30;;
49548;SDS011;35450;44.518;7.466;2023-02-28T08:52:43;12.65;;;8.27;;
49548;SDS011;35450;44.518;7.466;2023-02-28T08:55:47;14.10;;;9.18;;
49548;SDS011;35450;44.518;7.466;2023-02-28T08:58:58;15.38;;;9.68;;
49548;SDS011;35450;44.518;7.466;2023-02-28T09:02:02;11.07;;;7.97;;
49548;SDS011;35450;44.518;7.466;2023-02-28T09:05:06;14.38;;;10.18;;
49548;SDS011;35450;44.518;7.466;2023-02-28T09:08:11;14.73;;;9.38;;
49548;SDS011;35450;44.518;7.466;2023-02-28T09:11:15;17.77;;;11.02;;
49548;SDS011;35450;44.518;7.466;2023-02-28T09:14:20;21.48;;;12.75;;
49548;SDS011;35450;44.518;7.466;2023-02-28T09:17:24;15.55;;;9.98;;
49548;SDS011;35450;44.518;7.466;2023-02-28T09:20:28;13.57;;;8.25;;
49548;SDS011;35450;44.518;7.466;2023-02-28T09:23:32;10.10;;;7.55;;
49548;SDS011;35450;44.518;7.466;2023-02-28T09:26:36;11.05;;;6.97;;
49548;SDS011;35450;44.518;7.466;2023-02-28T09:29:41;14.70;;;6.82;;
49548;SDS011;35450;44.518;7.466;2023-02-28T09:32:45;11.30;;;6.90;;
49548;SDS011;35450;44.518;7.466;2023-02-28T09:35:59;11.15;;;7.13;;
49548;SDS011;35450;44.518;7.466;2023-02-28T09:39:04;11.57;;;7.75;;
49548;SDS011;35450;44.518;7.466;2023-02-28T09:42:17;10.52;;;7.93;;
49548;SDS011;35450;44.518;7.466;2023-02-28T09:45:36;10.50;;;7.40;;
49548;SDS011;35450;44.518;7.466;2023-02-28T09:48:44;13.85;;;7.85;;
49548;SDS011;35450;44.518;7.466;2023-02-28T09:55:00;13.88;;;7.88;;
49548;SDS011;35450;44.518;7.466;2023-02-28T09:58:30;12.40;;;7.55;;
49548;SDS011;35450;44.518;7.466;2023-02-28T10:01:57;11.30;;;8.00;;
49548;SDS011;35450;44.518;7.466;2023-02-28T10:05:47;14.30;;;9.15;;
49548;SDS011;35450;44.518;7.466;2023-02-28T10:12:02;17.80;;;9.60;;
49548;SDS011;35450;44.518;7.466;2023-02-28T10:15:08;14.43;;;10.48;;
49548;SDS011;35450;44.518;7.466;2023-02-28T10:18:20;13.93;;;8.73;;
49548;SDS011;35450;44.518;7.466;2023-02-28T10:21:29;13.95;;;8.35;;
49548;SDS011;35450;44.518;7.466;2023-02-28T10:24:40;17.27;;;9.00;;
49548;SDS011;35450;44.518;7.466;2023-02-28T10:28:07;16.83;;;8.95;;
49548;SDS011;35450;44.518;7.466;2023-02-28T10:31:20;14.50;;;8.00;;
49548;SDS011;35450;44.518;7.466;2023-02-28T10:34:24;13.63;;;7.70;;
49548;SDS011;35450;44.518;7.466;2023-02-28T10:37:28;13.20;;;8.75;;
49548;SDS011;35450;44.518;7.466;2023-02-28T10:40:34;12.30;;;9.02;;
49548;SDS011;35450;44.518;7.466;2023-02-28T10:43:39;11.60;;;8.80;;
49548;SDS011;35450;44.518;7.466;2023-02-28T10:46:44;13.32;;;9.20;;
49548;SDS011;35450;44.518;7.466;2023-02-28T10:49:49;15.25;;;10.45;;
49548;SDS011;35450;44.518;7.466;2023-02-28T10:53:03;14.65;;;9.02;;
49548;SDS011;35450;44.518;7.466;2023-02-28T10:56:23;13.60;;;9.68;;
49548;SDS011;35450;44.518;7.466;2023-02-28T10:59:31;12.30;;;8.25;;
49548;SDS011;35450;44.518;7.466;2023-02-28T11:02:36;11.85;;;8.77;;
49548;SDS011;35450;44.518;7.466;2023-02-28T11:05:45;12.32;;;8.52;;
49548;SDS011;35450;44.518;7.466;2023-02-28T11:08:53;14.02;;;8.88;;
49548;SDS011;35450;44.518;7.466;2023-02-28T11:12:04;11.77;;;8.45;;
49548;SDS011;35450;44.518;7.466;2023-02-28T11:18:31;15.70;;;9.77;;
49548;SDS011;35450;44.518;7.466;2023-02-28T11:22:00;13.80;;;9.90;;
49548;SDS011;35450;44.518;7.466;2023-02-28T11:25:13;15.88;;;9.88;;
49548;SDS011;35450;44.518;7.466;2023-02-28T11:28:34;12.82;;;9.18;;
49548;SDS011;35450;44.518;7.466;2023-02-28T11:31:40;14.18;;;9.15;;
49548;SDS011;35450;44.518;7.466;2023-02-28T11:34:45;15.75;;;9.88;;
49548;SDS011;35450;44.518;7.466;2023-02-28T11:37:49;15.75;;;10.38;;
49548;SDS011;35450;44.518;7.466;2023-02-28T11:47:12;16.00;;;9.57;;
49548;SDS011;35450;44.518;7.466;2023-02-28T11:50:40;13.13;;;9.48;;
49548;SDS011;35450;44.518;7.466;2023-02-28T11:54:21;12.07;;;9.07;;
49548;SDS011;35450;44.518;7.466;2023-02-28T12:04:40;34.03;;;18.23;;
49548;SDS011;35450;44.518;7.466;2023-02-28T12:08:09;52.88;;;30.50;;
49548;SDS011;35450;44.518;7.466;2023-02-28T12:15:14;19.48;;;12.82;;
49548;SDS011;35450;44.518;7.466;2023-02-28T12:21:48;15.40;;;9.55;;
49548;SDS011;35450;44.518;7.466;2023-02-28T12:28:57;17.00;;;10.30;;
49548;SDS011;35450;44.518;7.466;2023-02-28T12:32:33;17.85;;;10.20;;
49548;SDS011;35450;44.518;7.466;2023-02-28T12:35:51;14.52;;;10.13;;
49548;SDS011;35450;44.518;7.466;2023-02-28T12:42:10;13.88;;;9.38;;
49548;SDS011;35450;44.518;7.466;2023-02-28T12:45:40;13.55;;;10.52;;
49548;SDS011;35450;44.518;7.466;2023-02-28T12:49:06;12.65;;;9.60;;
49548;SDS011;35450;44.518;7.466;2023-02-28T12:52:14;13.40;;;9.70;;
49548;SDS011;35450;44.518;7.466;2023-02-28T12:55:40;13.38;;;9.60;;
49548;SDS011;35450;44.518;7.466;2023-02-28T12:59:09;14.18;;;9.55;;
49548;SDS011;35450;44.518;7.466;2023-02-28T13:08:39;14.05;;;10.05;;
49548;SDS011;35450;44.518;7.466;2023-02-28T13:11:48;13.43;;;10.60;;
49548;SDS011;35450;44.518;7.466;2023-02-28T13:18:32;13.45;;;9.73;;
49548;SDS011;35450;44.518;7.466;2023-02-28T13:21:49;13.88;;;9.68;;
49548;SDS011;35450;44.518;7.466;2023-02-28T13:24:55;13.30;;;9.43;;
49548;SDS011;35450;44.518;7.466;2023-02-28T13:28:00;14.52;;;10.75;;
49548;SDS011;35450;44.518;7.466;2023-02-28T13:31:07;16.27;;;11.25;;
49548;SDS011;35450;44.518;7.466;2023-02-28T13:34:15;14.50;;;10.55;;
49548;SDS011;35450;44.518;7.466;2023-02-28T13:40:33;16.58;;;10.38;;
49548;SDS011;35450;44.518;7.466;2023-02-28T13:53:35;17.65;;;10.75;;
49548;SDS011;35450;44.518;7.466;2023-02-28T14:03:47;17.52;;;11.57;;
49548;SDS011;35450;44.518;7.466;2023-02-28T14:07:19;16.02;;;10.02;;
49548;SDS011;35450;44.518;7.466;2023-02-28T14:10:29;14.65;;;9.90;;
49548;SDS011;35450;44.518;7.466;2023-02-28T14:13:38;14.02;;;10.13;;
49548;SDS011;35450;44.518;7.466;2023-02-28T14:16:50;18.27;;;10.75;;
49548;SDS011;35450;44.518;7.466;2023-02-28T14:19:54;16.80;;;11.27;;
49548;SDS011;35450;44.518;7.466;2023-02-28T14:23:19;16.15;;;11.50;;
49548;SDS011;35450;44.518;7.466;2023-02-28T14:36:30;21.45;;;12.02;;
49548;SDS011;35450;44.518;7.466;2023-02-28T14:39:40;18.65;;;11.45;;
49548;SDS011;35450;44.518;7.466;2023-02-28T14:42:54;18.20;;;11.38;;
49548;SDS011;35450;44.518;7.466;2023-02-28T14:46:01;18.20;;;10.98;;
49548;SDS011;35450;44.518;7.466;2023-02-28T14:49:18;16.77;;;12.32;;
49548;SDS011;35450;44.518;7.466;2023-02-28T14:52:33;18.77;;;11.98;;
49548;SDS011;35450;44.518;7.466;2023-02-28T14:55:43;16.23;;;11.13;;
49548;SDS011;35450;44.518;7.466;2023-02-28T14:58:52;18.48;;;11.60;;
49548;SDS011;35450;44.518;7.466;2023-02-28T15:05:32;24.50;;;14.25;;
49548;SDS011;35450;44.518;7.466;2023-02-28T15:08:37;21.33;;;12.10;;
49548;SDS011;35450;44.518;7.466;2023-02-28T15:11:42;25.15;;;17.33;;
49548;SDS011;35450;44.518;7.466;2023-02-28T15:14:50;51.30;;;26.05;;
49548;SDS011;35450;44.518;7.466;2023-02-28T15:17:55;65.78;;;34.08;;
49548;SDS011;35450;44.518;7.466;2023-02-28T15:21:07;42.63;;;23.55;;
49548;SDS011;35450;44.518;7.466;2023-02-28T15:27:35;26.92;;;16.25;;
49548;SDS011;35450;44.518;7.466;2023-02-28T15:30:50;21.77;;;14.52;;
49548;SDS011;35450;44.518;7.466;2023-02-28T15:34:03;23.92;;;14.50;;
49548;SDS011;35450;44.518;7.466;2023-02-28T15:37:25;25.35;;;15.02;;
49548;SDS011;35450;44.518;7.466;2023-02-28T15:40:51;23.85;;;14.50;;
49548;SDS011;35450;44.518;7.466;2023-02-28T15:44:18;25.00;;;15.73;;
49548;SDS011;35450;44.518;7.466;2023-02-28T15:47:30;27.27;;;16.00;;
49548;SDS011;35450;44.518;7.466;2023-02-28T15:50:34;28.95;;;16.90;;
49548;SDS011;35450;44.518;7.466;2023-02-28T15:53:47;36.42;;;19.55;;
49548;SDS011;35450;44.518;7.466;2023-02-28T15:57:03;30.08;;;17.52;;
49548;SDS011;35450;44.518;7.466;2023-02-28T16:00:15;25.27;;;16.05;;
49548;SDS011;35450;44.518;7.466;2023-02-28T16:03:23;38.50;;;21.80;;
49548;SDS011;35450;44.518;7.466;2023-02-28T16:09:44;19.88;;;11.05;;
49548;SDS011;35450;44.518;7.466;2023-02-28T16:12:50;11.05;;;6.55;;
49548;SDS011;35450;44.518;7.466;2023-02-28T16:15:55;7.93;;;5.38;;
49548;SDS011;35450;44.518;7.466;2023-02-28T16:18:59;10.73;;;5.18;;
49548;SDS011;35450;44.518;7.466;2023-02-28T16:22:03;14.50;;;6.53;;
49548;SDS011;35450;44.518;7.466;2023-02-28T16:25:10;11.93;;;7.55;;
49548;SDS011;35450;44.518;7.466;2023-02-28T16:28:19;20.45;;;7.40;;
49548;SDS011;35450;44.518;7.466;2023-02-28T16:31:27;15.73;;;6.18;;
49548;SDS011;35450;44.518;7.466;2023-02-28T16:34:31;15.23;;;6.65;;
49548;SDS011;35450;44.518;7.466;2023-02-28T16:37:35;13.82;;;8.95;;
49548;SDS011;35450;44.518;7.466;2023-02-28T16:40:40;8.35;;;5.40;;
49548;SDS011;35450;44.518;7.466;2023-02-28T16:43:45;6.55;;;4.40;;
49548;SDS011;35450;44.518;7.466;2023-02-28T16:46:51;9.27;;;4.40;;
49548;SDS011;35450;44.518;7.466;2023-02-28T16:49:55;5.88;;;4.28;;
49548;SDS011;35450;44.518;7.466;2023-02-28T16:52:59;10.27;;;4.18;;
49548;SDS011;35450;44.518;7.466;2023-02-28T16:56:03;7.18;;;4.13;;
49548;SDS011;35450;44.518;7.466;2023-02-28T16:59:10;36.97;;;16.88;;
49548;SDS011;35450;44.518;7.466;2023-02-28T17:02:15;9.13;;;6.22;;
49548;SDS011;35450;44.518;7.466;2023-02-28T17:05:22;6.75;;;5.25;;
49548;SDS011;35450;44.518;7.466;2023-02-28T17:08:27;6.85;;;5.53;;
49548;SDS011;35450;44.518;7.466;2023-02-28T17:11:32;7.10;;;5.10;;
49548;SDS011;35450;44.518;7.466;2023-02-28T17:14:37;7.97;;;5.25;;
49548;SDS011;35450;44.518;7.466;2023-02-28T17:17:42;12.05;;;7.13;;
49548;SDS011;35450;44.518;7.466;2023-02-28T17:20:47;13.32;;;8.65;;
49548;SDS011;35450;44.518;7.466;2023-02-28T17:23:52;15.52;;;9.00;;
49548;SDS011;35450;44.518;7.466;2023-02-28T17:26:56;20.17;;;11.68;;
49548;SDS011;35450;44.518;7.466;2023-02-28T17:30:00;32.28;;;16.58;;
49548;SDS011;35450;44.518;7.466;2023-02-28T17:33:04;28.45;;;15.07;;
49548;SDS011;35450;44.518;7.466;2023-02-28T17:36:16;36.63;;;20.52;;
49548;SDS011;35450;44.518;7.466;2023-02-28T17:39:24;34.13;;;19.48;;
49548;SDS011;35450;44.518;7.466;2023-02-28T17:42:29;15.32;;;10.60;;
49548;SDS011;35450;44.518;7.466;2023-02-28T17:45:33;15.30;;;8.55;;
49548;SDS011;35450;44.518;7.466;2023-02-28T17:48:39;26.33;;;13.88;;
49548;SDS011;35450;44.518;7.466;2023-02-28T17:51:43;66.38;;;27.85;;
49548;SDS011;35450;44.518;7.466;2023-02-28T17:54:47;19.35;;;9.55;;
49548;SDS011;35450;44.518;7.466;2023-02-28T17:57:51;34.20;;;15.30;;
49548;SDS011;35450;44.518;7.466;2023-02-28T18:00:55;41.70;;;19.90;;
49548;SDS011;35450;44.518;7.466;2023-02-28T18:03:59;22.88;;;12.05;;
49548;SDS011;35450;44.518;7.466;2023-02-28T18:07:03;22.63;;;11.68;;
49548;SDS011;35450;44.518;7.466;2023-02-28T18:10:12;25.98;;;12.45;;
49548;SDS011;35450;44.518;7.466;2023-02-28T18:13:22;20.27;;;11.05;;
49548;SDS011;35450;44.518;7.466;2023-02-28T18:16:26;21.85;;;11.73;;
49548;SDS011;35450;44.518;7.466;2023-02-28T18:19:31;22.13;;;12.95;;
49548;SDS011;35450;44.518;7.466;2023-02-28T18:22:35;28.63;;;15.00;;
49548;SDS011;35450;44.518;7.466;2023-02-28T18:25:40;31.02;;;14.68;;
49548;SDS011;35450;44.518;7.466;2023-02-28T18:28:45;54.25;;;22.45;;
49548;SDS011;35450;44.518;7.466;2023-02-28T18:31:50;15.13;;;9.02;;
49548;SDS011;35450;44.518;7.466;2023-02-28T18:34:55;6.18;;;3.55;;
49548;SDS011;35450;44.518;7.466;2023-02-28T18:38:03;4.90;;;3.00;;
49548;SDS011;35450;44.518;7.466;2023-02-28T18:41:17;4.55;;;3.28;;
49548;SDS011;35450;44.518;7.466;2023-02-28T18:44:24;5.35;;;3.72;;
49548;SDS011;35450;44.518;7.466;2023-02-28T18:47:28;6.30;;;4.10;;
49548;SDS011;35450;44.518;7.466;2023-02-28T18:50:32;4.10;;;3.08;;
49548;SDS011;35450;44.518;7.466;2023-02-28T18:53:37;3.42;;;2.40;;
49548;SDS011;35450;44.518;7.466;2023-02-28T18:56:42;6.03;;;3.70;;
49548;SDS011;35450;44.518;7.466;2023-02-28T18:59:47;10.95;;;6.97;;
49548;SDS011;35450;44.518;7.466;2023-02-28T19:02:51;34.15;;;22.42;;
49548;SDS011;35450;44.518;7.466;2023-02-28T19:05:56;7.40;;;5.53;;
49548;SDS011;35450;44.518;7.466;2023-02-28T19:09:02;7.30;;;5.20;;
49548;SDS011;35450;44.518;7.466;2023-02-28T19:12:06;34.92;;;19.48;;
49548;SDS011;35450;44.518;7.466;2023-02-28T19:15:11;8.50;;;4.93;;
49548;SDS011;35450;44.518;7.466;2023-02-28T19:18:16;31.38;;;16.58;;
49548;SDS011;35450;44.518;7.466;2023-02-28T19:21:20;20.92;;;11.90;;
49548;SDS011;35450;44.518;7.466;2023-02-28T19:24:29;5.18;;;3.42;;
49548;SDS011;35450;44.518;7.466;2023-02-28T19:27:33;6.88;;;4.63;;
49548;SDS011;35450;44.518;7.466;2023-02-28T19:30:37;11.90;;;4.93;;
49548;SDS011;35450;44.518;7.466;2023-02-28T19:33:41;15.15;;;7.43;;
49548;SDS011;35450;44.518;7.466;2023-02-28T19:36:46;23.50;;;13.95;;
49548;SDS011;35450;44.518;7.466;2023-02-28T19:39:50;26.02;;;14.32;;
49548;SDS011;35450;44.518;7.466;2023-02-28T19:42:57;33.83;;;17.45;;
49548;SDS011;35450;44.518;7.466;2023-02-28T19:46:01;35.13;;;19.30;;
49548;SDS011;35450;44.518;7.466;2023-02-28T19:49:05;18.02;;;10.13;;
49548;SDS011;35450;44.518;7.466;2023-02-28T19:52:09;14.98;;;8.82;;
49548;SDS011;35450;44.518;7.466;2023-02-28T19:55:14;12.02;;;8.00;;
49548;SDS011;35450;44.518;7.466;2023-02-28T19:58:19;10.40;;;5.40;;
49548;SDS011;35450;44.518;7.466;2023-02-28T20:01:23;5.05;;;3.72;;
49548;SDS011;35450;44.518;7.466;2023-02-28T20:04:27;3.63;;;2.60;;
49548;SDS011;35450;44.518;7.466;2023-02-28T20:07:32;14.40;;;8.13;;
49548;SDS011;35450;44.518;7.466;2023-02-28T20:10:36;2.72;;;2.05;;
49548;SDS011;35450;44.518;7.466;2023-02-28T20:13:40;7.80;;;4.72;;
49548;SDS011;35450;44.518;7.466;2023-02-28T20:16:44;7.28;;;4.57;;
49548;SDS011;35450;44.518;7.466;2023-02-28T20:19:48;10.50;;;6.13;;
49548;SDS011;35450;44.518;7.466;2023-02-28T20:22:52;8.63;;;6.40;;
49548;SDS011;35450;44.518;7.466;2023-02-28T20:25:59;16.35;;;9.07;;
49548;SDS011;35450;44.518;7.466;2023-02-28T20:29:05;25.73;;;15.30;;
49548;SDS011;35450;44.518;7.466;2023-02-28T20:32:11;38.15;;;22.23;;
49548;SDS011;35450;44.518;7.466;2023-02-28T20:35:17;34.83;;;19.25;;
49548;SDS011;35450;44.518;7.466;2023-02-28T20:38:21;25.90;;;14.20;;